LFMD/CEQ METAR and TAF weather

Enter ICAO airport designator
Station Type Date Time Source
LFMD METAR 2024/06/16 09:30 UTC NOAA

LFMD 160930Z AUTO 16006KT 100V270 CAVOK 23/16 Q1011 NOSIG


Station Type Date Time Source
LFMD Decoded METAR 2024/06/16 09:30 UTC NOAA

Cannes, France (LFMD) 43-33N 006-57E 9M
Jun 16, 2024 - 05:30 AM EDT / 2024.06.16 0930 UTC
Wind: from the SSE (160 degrees) at 7 MPH (6 KT) (direction variable):0
Visibility: greater than 7 mile(s):0
Temperature: 73 F (23 C)
Dew Point: 60 F (16 C)
Relative Humidity: 64%
Pressure (altimeter): 29.85 in. Hg (1011 hPa)
ob: LFMD 160930Z AUTO 16006KT 100V270 CAVOK 23/16 Q1011 NOSIG
cycle: 9

Station Type Date Time Source
LFMD TAF 2024/06/16 09:21 UTC NOAA